sensor_id;sensor_type;location;lat;lon;timestamp;pressure;altitude;pressure_sealevel;temperature;humidity
7180;BME280;3631;42.152;24.756;2023-04-07T00:01:06;99189.13;;;8.05;50.00
7180;BME280;3631;42.152;24.756;2023-04-07T00:04:13;99202.97;;;8.02;49.96
7180;BME280;3631;42.152;24.756;2023-04-07T00:07:09;99188.59;;;7.90;50.17
7180;BME280;3631;42.152;24.756;2023-04-07T00:10:12;99207.53;;;7.91;49.56
7180;BME280;3631;42.152;24.756;2023-04-07T00:13:14;99198.91;;;7.92;49.32
7180;BME280;3631;42.152;24.756;2023-04-07T00:16:01;99203.16;;;7.94;50.04
7180;BME280;3631;42.152;24.756;2023-04-07T00:22:07;99213.66;;;7.87;50.00
7180;BME280;3631;42.152;24.756;2023-04-07T00:24:55;99193.25;;;7.76;49.95
7180;BME280;3631;42.152;24.756;2023-04-07T00:27:52;99201.84;;;7.77;50.05
7180;BME280;3631;42.152;24.756;2023-04-07T00:30:38;99197.66;;;7.71;49.93
7180;BME280;3631;42.152;24.756;2023-04-07T00:33:45;99207.06;;;7.74;50.44
7180;BME280;3631;42.152;24.756;2023-04-07T00:36:36;99207.91;;;7.76;49.78
7180;BME280;3631;42.152;24.756;2023-04-07T00:39:48;99201.03;;;7.75;49.68
7180;BME280;3631;42.152;24.756;2023-04-07T00:42:47;99207.91;;;7.76;50.42
7180;BME280;3631;42.152;24.756;2023-04-07T00:45:46;99208.72;;;7.78;50.08
7180;BME280;3631;42.152;24.756;2023-04-07T00:51:49;99209.00;;;7.64;49.95
7180;BME280;3631;42.152;24.756;2023-04-07T00:55:08;99211.81;;;7.55;50.73
7180;BME280;3631;42.152;24.756;2023-04-07T00:58:14;99206.53;;;7.58;50.94
7180;BME280;3631;42.152;24.756;2023-04-07T01:01:14;99207.56;;;7.51;51.33
7180;BME280;3631;42.152;24.756;2023-04-07T01:04:02;99203.25;;;7.51;51.54
7180;BME280;3631;42.152;24.756;2023-04-07T01:07:07;99204.09;;;7.52;51.04
7180;BME280;3631;42.152;24.756;2023-04-07T01:10:14;99196.63;;;7.40;50.66
7180;BME280;3631;42.152;24.756;2023-04-07T01:13:29;99203.50;;;7.39;50.71
7180;BME280;3631;42.152;24.756;2023-04-07T01:16:30;99198.41;;;7.36;50.75
7180;BME280;3631;42.152;24.756;2023-04-07T01:19:31;99197.56;;;7.36;50.18
7180;BME280;3631;42.152;24.756;2023-04-07T01:22:27;99201.22;;;7.25;50.48
7180;BME280;3631;42.152;24.756;2023-04-07T01:25:37;99202.09;;;7.24;50.77
7180;BME280;3631;42.152;24.756;2023-04-07T01:32:00;99210.03;;;7.15;50.85
7180;BME280;3631;42.152;24.756;2023-04-07T01:35:03;99215.31;;;7.09;51.45
7180;BME280;3631;42.152;24.756;2023-04-07T01:38:02;99207.66;;;7.05;51.36
7180;BME280;3631;42.152;24.756;2023-04-07T01:40:42;99215.41;;;7.03;51.91
7180;BME280;3631;42.152;24.756;2023-04-07T01:43:29;99213.72;;;7.02;51.46
7180;BME280;3631;42.152;24.756;2023-04-07T01:46:31;99222.22;;;7.09;50.93
7180;BME280;3631;42.152;24.756;2023-04-07T01:49:44;99222.22;;;7.09;52.30
7180;BME280;3631;42.152;24.756;2023-04-07T01:52:37;99209.16;;;7.15;52.24
7180;BME280;3631;42.152;24.756;2023-04-07T01:55:33;99215.31;;;7.09;52.19
7180;BME280;3631;42.152;24.756;2023-04-07T01:58:27;99214.53;;;7.06;52.20
7180;BME280;3631;42.152;24.756;2023-04-07T02:01:23;99206.81;;;7.04;52.58
7180;BME280;3631;42.152;24.756;2023-04-07T02:04:20;99217.19;;;7.01;52.29
7180;BME280;3631;42.152;24.756;2023-04-07T02:07:12;99195.88;;;6.91;52.15
7180;BME280;3631;42.152;24.756;2023-04-07T02:10:20;99209.56;;;6.95;52.34
7180;BME280;3631;42.152;24.756;2023-04-07T02:13:12;99210.44;;;6.94;51.91
7180;BME280;3631;42.152;24.756;2023-04-07T02:16:12;99204.50;;;6.89;51.94
7180;BME280;3631;42.152;24.756;2023-04-07T02:19:07;99204.56;;;6.87;51.74
7180;BME280;3631;42.152;24.756;2023-04-07T02:22:12;99212.38;;;6.83;52.63
7180;BME280;3631;42.152;24.756;2023-04-07T02:25:28;99201.22;;;6.81;52.46
7180;BME280;3631;42.152;24.756;2023-04-07T02:28:16;99208.91;;;6.84;52.34
7180;BME280;3631;42.152;24.756;2023-04-07T02:31:10;99206.41;;;6.79;52.08
7180;BME280;3631;42.152;24.756;2023-04-07T02:33:56;99213.31;;;6.79;52.23
7180;BME280;3631;42.152;24.756;2023-04-07T02:36:55;99212.56;;;6.74;52.38
7180;BME280;3631;42.152;24.756;2023-04-07T02:39:55;99208.28;;;6.71;52.06
7180;BME280;3631;42.152;24.756;2023-04-07T02:43:09;99217.81;;;6.66;52.49
7180;BME280;3631;42.152;24.756;2023-04-07T02:49:02;99214.44;;;6.66;52.41
7180;BME280;3631;42.152;24.756;2023-04-07T02:51:51;99220.50;;;6.62;51.79
7180;BME280;3631;42.152;24.756;2023-04-07T02:54:57;99223.03;;;6.65;52.18
7180;BME280;3631;42.152;24.756;2023-04-07T02:58:02;99228.91;;;6.73;52.26
7180;BME280;3631;42.152;24.756;2023-04-07T03:00:50;99215.19;;;6.71;52.54
7180;BME280;3631;42.152;24.756;2023-04-07T03:03:41;99221.13;;;6.76;52.02
7180;BME280;3631;42.152;24.756;2023-04-07T03:06:27;99227.00;;;6.82;52.08
7180;BME280;3631;42.152;24.756;2023-04-07T03:09:09;99224.44;;;6.81;52.09
7180;BME280;3631;42.152;24.756;2023-04-07T03:11:50;99225.25;;;6.84;52.41
7180;BME280;3631;42.152;24.756;2023-04-07T03:14:26;99229.44;;;6.90;52.52
7180;BME280;3631;42.152;24.756;2023-04-07T03:17:07;99233.75;;;6.89;52.77
7180;BME280;3631;42.152;24.756;2023-04-07T03:19:35;99227.00;;;6.82;53.03
7180;BME280;3631;42.152;24.756;2023-04-07T03:22:10;99227.97;;;6.77;52.94
7180;BME280;3631;42.152;24.756;2023-04-07T03:24:49;99226.38;;;6.68;53.32
7180;BME280;3631;42.152;24.756;2023-04-07T03:27:34;99226.28;;;6.76;53.33
7180;BME280;3631;42.152;24.756;2023-04-07T03:30:19;99226.13;;;6.83;53.25
7180;BME280;3631;42.152;24.756;2023-04-07T03:32:57;99232.22;;;6.78;53.54
7180;BME280;3631;42.152;24.756;2023-04-07T03:35:33;99231.34;;;6.79;53.23
7180;BME280;3631;42.152;24.756;2023-04-07T03:38:08;99231.47;;;6.74;53.73
7180;BME280;3631;42.152;24.756;2023-04-07T03:40:43;99237.44;;;6.76;53.51
7180;BME280;3631;42.152;24.756;2023-04-07T03:43:22;99240.88;;;6.77;53.50
7180;BME280;3631;42.152;24.756;2023-04-07T03:46:05;99239.16;;;6.76;53.30
7180;BME280;3631;42.152;24.756;2023-04-07T03:48:53;99241.69;;;6.79;53.54
7180;BME280;3631;42.152;24.756;2023-04-07T03:51:31;99249.50;;;6.74;53.37
7180;BME280;3631;42.152;24.756;2023-04-07T03:54:23;99251.28;;;6.71;53.82
7180;BME280;3631;42.152;24.756;2023-04-07T03:57:15;99253.00;;;6.70;53.71
7180;BME280;3631;42.152;24.756;2023-04-07T04:00:25;99259.69;;;6.82;53.86
7180;BME280;3631;42.152;24.756;2023-04-07T04:03:04;99247.69;;;6.79;54.05
7180;BME280;3631;42.152;24.756;2023-04-07T04:05:43;99256.41;;;6.74;54.49
7180;BME280;3631;42.152;24.756;2023-04-07T04:08:25;99255.63;;;6.69;54.37
7180;BME280;3631;42.152;24.756;2023-04-07T04:11:05;99255.72;;;6.63;54.18
7180;BME280;3631;42.152;24.756;2023-04-07T04:13:55;99255.56;;;6.72;54.77
7180;BME280;3631;42.152;24.756;2023-04-07T04:17:31;99259.63;;;6.85;54.15
7180;BME280;3631;42.152;24.756;2023-04-07T04:20:23;99269.91;;;6.88;53.16
7180;BME280;3631;42.152;24.756;2023-04-07T04:23:04;99266.34;;;6.95;53.09
7180;BME280;3631;42.152;24.756;2023-04-07T04:25:36;99274.75;;;7.05;53.62
7180;BME280;3631;42.152;24.756;2023-04-07T04:28:08;99273.03;;;7.04;53.31
7180;BME280;3631;42.152;24.756;2023-04-07T04:30:43;99275.56;;;7.07;53.23
7180;BME280;3631;42.152;24.756;2023-04-07T04:33:23;99284.72;;;7.23;52.95
7180;BME280;3631;42.152;24.756;2023-04-07T04:36:05;99288.59;;;7.45;53.29
7180;BME280;3631;42.152;24.756;2023-04-07T04:38:33;99287.38;;;7.63;52.29
7180;BME280;3631;42.152;24.756;2023-04-07T04:41:03;99285.41;;;7.76;52.50
7180;BME280;3631;42.152;24.756;2023-04-07T04:43:39;99291.94;;;8.32;51.61
7180;BME280;3631;42.152;24.756;2023-04-07T04:46:12;99291.00;;;9.36;48.32
7180;BME280;3631;42.152;24.756;2023-04-07T04:48:49;99300.88;;;9.53;46.86
7180;BME280;3631;42.152;24.756;2023-04-07T04:51:23;99300.91;;;9.52;47.15
7180;BME280;3631;42.152;24.756;2023-04-07T04:53:55;99294.28;;;9.41;46.57
7180;BME280;3631;42.152;24.756;2023-04-07T04:56:26;99306.97;;;9.51;46.56
7180;BME280;3631;42.152;24.756;2023-04-07T04:59:03;99306.56;;;9.66;46.04
7180;BME280;3631;42.152;24.756;2023-04-07T05:01:36;99306.63;;;10.23;45.28
7180;BME280;3631;42.152;24.756;2023-04-07T05:04:10;99310.00;;;10.79;44.38
7180;BME280;3631;42.152;24.756;2023-04-07T05:06:42;99310.28;;;10.97;43.03
7180;BME280;3631;42.152;24.756;2023-04-07T05:09:12;99314.09;;;10.86;43.12
7180;BME280;3631;42.152;24.756;2023-04-07T05:11:43;99319.00;;;10.69;43.97
7180;BME280;3631;42.152;24.756;2023-04-07T05:14:15;99325.38;;;10.31;43.83
7180;BME280;3631;42.152;24.756;2023-04-07T05:16:50;99312.91;;;9.85;45.08
7180;BME280;3631;42.152;24.756;2023-04-07T05:19:22;99328.03;;;10.00;44.71
7180;BME280;3631;42.152;24.756;2023-04-07T05:22:07;99325.16;;;10.09;44.36
7180;BME280;3631;42.152;24.756;2023-04-07T05:24:51;99330.25;;;10.12;43.91
7180;BME280;3631;42.152;24.756;2023-04-07T05:27:45;99327.31;;;10.25;43.18
7180;BME280;3631;42.152;24.756;2023-04-07T05:30:58;99337.03;;;11.25;41.61
7180;BME280;3631;42.152;24.756;2023-04-07T05:33:50;99333.56;;;12.86;38.77
7180;BME280;3631;42.152;24.756;2023-04-07T05:36:34;99330.34;;;14.00;37.13
7180;BME280;3631;42.152;24.756;2023-04-07T05:39:05;99340.13;;;14.70;35.92
7180;BME280;3631;42.152;24.756;2023-04-07T05:41:43;99347.56;;;15.31;34.10
7180;BME280;3631;42.152;24.756;2023-04-07T05:44:29;99339.88;;;15.27;34.09
7180;BME280;3631;42.152;24.756;2023-04-07T05:47:11;99346.44;;;14.66;34.39
7180;BME280;3631;42.152;24.756;2023-04-07T05:49:42;99340.88;;;14.17;34.23
7180;BME280;3631;42.152;24.756;2023-04-07T05:52:31;99341.44;;;13.66;34.56
7180;BME280;3631;42.152;24.756;2023-04-07T05:55:05;99346.00;;;13.42;34.50
7180;BME280;3631;42.152;24.756;2023-04-07T05:57:42;99344.44;;;13.18;34.66
7180;BME280;3631;42.152;24.756;2023-04-07T06:00:18;99341.03;;;13.16;35.08
7180;BME280;3631;42.152;24.756;2023-04-07T06:02:58;99346.84;;;13.00;35.04
7180;BME280;3631;42.152;24.756;2023-04-07T06:05:32;99344.19;;;13.02;35.28
7180;BME280;3631;42.152;24.756;2023-04-07T06:08:27;99342.63;;;12.98;34.79
7180;BME280;3631;42.152;24.756;2023-04-07T06:11:18;99346.38;;;13.33;34.25
7180;BME280;3631;42.152;24.756;2023-04-07T06:14:07;99351.00;;;13.26;34.60
7180;BME280;3631;42.152;24.756;2023-04-07T06:17:00;99341.56;;;13.24;34.96
7180;BME280;3631;42.152;24.756;2023-04-07T06:19:54;99354.69;;;13.81;34.42
7180;BME280;3631;42.152;24.756;2023-04-07T06:22:38;99357.09;;;14.24;33.58
7180;BME280;3631;42.152;24.756;2023-04-07T06:25:33;99355.44;;;14.41;33.24
7180;BME280;3631;42.152;24.756;2023-04-07T06:28:22;99364.16;;;14.59;33.33
7180;BME280;3631;42.152;24.756;2023-04-07T06:31:22;99348.78;;;14.53;32.42
7180;BME280;3631;42.152;24.756;2023-04-07T06:34:15;99364.69;;;15.53;31.92
7180;BME280;3631;42.152;24.756;2023-04-07T06:37:16;99357.47;;;16.40;30.28
7180;BME280;3631;42.152;24.756;2023-04-07T06:40:10;99361.75;;;17.04;30.11
7180;BME280;3631;42.152;24.756;2023-04-07T06:43:30;99373.00;;;19.17;27.43
7180;BME280;3631;42.152;24.756;2023-04-07T06:46:30;99372.31;;;20.66;25.69
7180;BME280;3631;42.152;24.756;2023-04-07T06:49:33;99385.06;;;22.45;23.79
7180;BME280;3631;42.152;24.756;2023-04-07T06:52:24;99371.47;;;22.39;23.20
7180;BME280;3631;42.152;24.756;2023-04-07T06:55:14;99379.88;;;21.88;23.79
7180;BME280;3631;42.152;24.756;2023-04-07T06:58:21;99379.38;;;22.50;23.02
7180;BME280;3631;42.152;24.756;2023-04-07T07:01:23;99381.88;;;22.63;22.89
7180;BME280;3631;42.152;24.756;2023-04-07T07:04:25;99387.69;;;23.32;22.38
7180;BME280;3631;42.152;24.756;2023-04-07T07:07:22;99383.19;;;23.43;21.81
7180;BME280;3631;42.152;24.756;2023-04-07T07:13:32;99382.09;;;22.82;22.58
7180;BME280;3631;42.152;24.756;2023-04-07T07:16:33;99390.72;;;23.48;21.90
7180;BME280;3631;42.152;24.756;2023-04-07T07:19:33;99385.31;;;23.70;21.25
7180;BME280;3631;42.152;24.756;2023-04-07T07:22:24;99390.88;;;23.14;21.77
7180;BME280;3631;42.152;24.756;2023-04-07T07:25:23;99391.88;;;23.13;21.74
7180;BME280;3631;42.152;24.756;2023-04-07T07:28:04;99392.84;;;23.65;21.39
7180;BME280;3631;42.152;24.756;2023-04-07T07:30:48;99392.16;;;24.54;20.70
7180;BME280;3631;42.152;24.756;2023-04-07T07:33:46;99387.84;;;23.93;20.53
7180;BME280;3631;42.152;24.756;2023-04-07T07:36:54;99392.25;;;23.62;20.96
7180;BME280;3631;42.152;24.756;2023-04-07T07:39:55;99389.28;;;24.27;21.01
7180;BME280;3631;42.152;24.756;2023-04-07T07:42:39;99391.03;;;25.16;20.08
7180;BME280;3631;42.152;24.756;2023-04-07T07:45:29;99391.84;;;25.46;19.43
7180;BME280;3631;42.152;24.756;2023-04-07T07:52:02;99396.84;;;27.06;18.89
7180;BME280;3631;42.152;24.756;2023-04-07T07:55:03;99396.44;;;27.72;18.26
7180;BME280;3631;42.152;24.756;2023-04-07T07:57:40;99395.16;;;28.10;17.89
7180;BME280;3631;42.152;24.756;2023-04-07T08:00:48;99385.25;;;28.71;17.90
7180;BME280;3631;42.152;24.756;2023-04-07T08:03:39;99387.00;;;28.96;17.52
7180;BME280;3631;42.152;24.756;2023-04-07T08:06:13;99382.22;;;29.65;16.96
7180;BME280;3631;42.152;24.756;2023-04-07T08:08:56;99382.56;;;29.45;17.31
7180;BME280;3631;42.152;24.756;2023-04-07T08:11:33;99389.22;;;30.45;16.57
7180;BME280;3631;42.152;24.756;2023-04-07T08:14:08;99386.88;;;30.42;16.42
7180;BME280;3631;42.152;24.756;2023-04-07T08:16:49;99389.47;;;30.19;16.32
7180;BME280;3631;42.152;24.756;2023-04-07T08:19:53;99378.84;;;29.30;16.71
7180;BME280;3631;42.152;24.756;2023-04-07T08:22:45;99373.88;;;28.61;17.66
7180;BME280;3631;42.152;24.756;2023-04-07T08:25:40;99370.16;;;29.28;17.10
7180;BME280;3631;42.152;24.756;2023-04-07T08:28:26;99368.69;;;29.34;17.13
7180;BME280;3631;42.152;24.756;2023-04-07T08:30:59;99368.78;;;29.89;16.66
7180;BME280;3631;42.152;24.756;2023-04-07T08:33:50;99367.81;;;29.17;16.88
7180;BME280;3631;42.152;24.756;2023-04-07T08:37:02;99367.66;;;29.26;17.17
7180;BME280;3631;42.152;24.756;2023-04-07T08:39:46;99355.13;;;29.19;16.86
7180;BME280;3631;42.152;24.756;2023-04-07T08:46:08;99347.59;;;28.40;17.35
7180;BME280;3631;42.152;24.756;2023-04-07T08:49:18;99362.25;;;27.32;18.30
7180;BME280;3631;42.152;24.756;2023-04-07T08:52:24;99352.06;;;26.74;18.58
7180;BME280;3631;42.152;24.756;2023-04-07T08:55:27;99340.41;;;26.58;18.61
7180;BME280;3631;42.152;24.756;2023-04-07T09:01:12;99355.25;;;26.60;18.98
7180;BME280;3631;42.152;24.756;2023-04-07T09:04:05;99347.94;;;26.62;18.63
7180;BME280;3631;42.152;24.756;2023-04-07T09:07:26;99331.75;;;26.73;18.74
7180;BME280;3631;42.152;24.756;2023-04-07T09:10:19;99339.78;;;26.09;18.71
7180;BME280;3631;42.152;24.756;2023-04-07T09:13:13;99333.97;;;25.20;19.57
7180;BME280;3631;42.152;24.756;2023-04-07T09:16:02;99342.34;;;26.01;19.28
7180;BME280;3631;42.152;24.756;2023-04-07T09:21:53;99349.44;;;26.47;19.40
7180;BME280;3631;42.152;24.756;2023-04-07T09:24:38;99347.84;;;27.43;18.07
7180;BME280;3631;42.152;24.756;2023-04-07T09:27:28;99338.69;;;26.39;19.01
7180;BME280;3631;42.152;24.756;2023-04-07T09:30:17;99338.53;;;25.57;19.68
7180;BME280;3631;42.152;24.756;2023-04-07T09:32:52;99330.78;;;25.17;20.39
7180;BME280;3631;42.152;24.756;2023-04-07T09:36:09;99335.44;;;23.75;21.16
7180;BME280;3631;42.152;24.756;2023-04-07T09:39:23;99330.41;;;22.67;22.10
7180;BME280;3631;42.152;24.756;2023-04-07T09:42:31;99326.06;;;21.89;22.55
7180;BME280;3631;42.152;24.756;2023-04-07T09:45:39;99313.63;;;24.33;21.00
7180;BME280;3631;42.152;24.756;2023-04-07T09:48:47;99321.88;;;24.39;20.81
7180;BME280;3631;42.152;24.756;2023-04-07T09:52:04;99314.94;;;23.77;21.41
7180;BME280;3631;42.152;24.756;2023-04-07T09:55:03;99311.22;;;21.31;23.59
7180;BME280;3631;42.152;24.756;2023-04-07T09:57:53;99293.53;;;19.88;24.95
7180;BME280;3631;42.152;24.756;2023-04-07T10:00:37;99316.25;;;19.13;25.85
7180;BME280;3631;42.152;24.756;2023-04-07T10:03:31;99316.53;;;18.01;27.11
7180;BME280;3631;42.152;24.756;2023-04-07T10:06:21;99313.97;;;17.57;27.26
7180;BME280;3631;42.152;24.756;2023-04-07T10:09:10;99306.59;;;17.20;28.11
7180;BME280;3631;42.152;24.756;2023-04-07T10:11:53;99305.72;;;16.59;28.71
7180;BME280;3631;42.152;24.756;2023-04-07T10:14:58;99314.13;;;16.19;29.80
7180;BME280;3631;42.152;24.756;2023-04-07T10:18:11;99299.59;;;16.13;30.55
7180;BME280;3631;42.152;24.756;2023-04-07T10:21:05;99305.81;;;16.26;30.07
7180;BME280;3631;42.152;24.756;2023-04-07T10:24:04;99304.75;;;15.99;30.31
7180;BME280;3631;42.152;24.756;2023-04-07T10:27:08;99297.97;;;15.79;30.25
7180;BME280;3631;42.152;24.756;2023-04-07T10:30:24;99299.63;;;15.65;30.48
7180;BME280;3631;42.152;24.756;2023-04-07T10:37:15;99294.13;;;15.69;31.04
7180;BME280;3631;42.152;24.756;2023-04-07T10:40:31;99299.84;;;15.60;31.41
7180;BME280;3631;42.152;24.756;2023-04-07T10:43:36;99297.19;;;15.27;32.10
7180;BME280;3631;42.152;24.756;2023-04-07T10:46:08;99293.34;;;15.34;32.03
7180;BME280;3631;42.152;24.756;2023-04-07T10:49:10;99290.28;;;15.09;32.10
7180;BME280;3631;42.152;24.756;2023-04-07T10:52:24;99292.81;;;14.93;32.55
7180;BME280;3631;42.152;24.756;2023-04-07T10:55:32;99288.19;;;14.81;32.55
7180;BME280;3631;42.152;24.756;2023-04-07T10:58:27;99292.38;;;14.85;32.78
7180;BME280;3631;42.152;24.756;2023-04-07T11:03:59;99291.97;;;14.75;32.81
7180;BME280;3631;42.152;24.756;2023-04-07T11:06:48;99289.25;;;14.60;32.92
7180;BME280;3631;42.152;24.756;2023-04-07T11:09:33;99282.06;;;14.65;33.27
7180;BME280;3631;42.152;24.756;2023-04-07T11:12:22;99280.53;;;14.78;33.15
7180;BME280;3631;42.152;24.756;2023-04-07T11:14:53;99276.00;;;14.81;33.59
7180;BME280;3631;42.152;24.756;2023-04-07T11:17:21;99283.06;;;14.79;33.62
7180;BME280;3631;42.152;24.756;2023-04-07T11:19:59;99271.91;;;14.59;33.38
7180;BME280;3631;42.152;24.756;2023-04-07T11:22:33;99282.97;;;14.81;34.47
7180;BME280;3631;42.152;24.756;2023-04-07T11:25:05;99275.63;;;14.89;34.04
7180;BME280;3631;42.152;24.756;2023-04-07T11:27:55;99278.22;;;14.72;34.07
7180;BME280;3631;42.152;24.756;2023-04-07T11:30:27;99280.97;;;14.69;33.97
7180;BME280;3631;42.152;24.756;2023-04-07T11:33:04;99271.13;;;14.57;34.18
7180;BME280;3631;42.152;24.756;2023-04-07T11:35:36;99281.56;;;14.57;34.48
7180;BME280;3631;42.152;24.756;2023-04-07T11:38:14;99273.72;;;14.39;34.77
7180;BME280;3631;42.152;24.756;2023-04-07T11:40:45;99271.78;;;14.24;34.97
7180;BME280;3631;42.152;24.756;2023-04-07T11:43:28;99264.22;;;14.37;34.74
7180;BME280;3631;42.152;24.756;2023-04-07T11:46:15;99266.72;;;14.40;34.80
7180;BME280;3631;42.152;24.756;2023-04-07T11:49:10;99262.84;;;14.30;34.61
7180;BME280;3631;42.152;24.756;2023-04-07T11:51:57;99267.31;;;14.09;35.02
7180;BME280;3631;42.152;24.756;2023-04-07T11:54:46;99263.88;;;14.08;35.69
7180;BME280;3631;42.152;24.756;2023-04-07T11:57:29;99263.81;;;14.27;36.04
7180;BME280;3631;42.152;24.756;2023-04-07T12:00:18;99265.06;;;14.01;36.44
7180;BME280;3631;42.152;24.756;2023-04-07T12:03:15;99265.25;;;13.59;36.35
7180;BME280;3631;42.152;24.756;2023-04-07T12:05:46;99257.06;;;13.48;36.57
7180;BME280;3631;42.152;24.756;2023-04-07T12:08:38;99257.63;;;13.55;36.59
7180;BME280;3631;42.152;24.756;2023-04-07T12:11:20;99261.63;;;13.63;36.46
7180;BME280;3631;42.152;24.756;2023-04-07T12:14:01;99258.28;;;13.78;35.79
7180;BME280;3631;42.152;24.756;2023-04-07T12:16:37;99260.97;;;13.96;36.09
7180;BME280;3631;42.152;24.756;2023-04-07T12:19:27;99272.09;;;14.18;35.90
7180;BME280;3631;42.152;24.756;2023-04-07T12:22:12;99274.50;;;14.04;36.33
7180;BME280;3631;42.152;24.756;2023-04-07T12:28:28;99253.84;;;13.80;35.95
7180;BME280;3631;42.152;24.756;2023-04-07T12:31:26;99252.44;;;13.92;36.97
7180;BME280;3631;42.152;24.756;2023-04-07T12:34:14;99252.44;;;13.92;37.16
7180;BME280;3631;42.152;24.756;2023-04-07T12:37:16;99246.81;;;13.82;37.25
7180;BME280;3631;42.152;24.756;2023-04-07T12:39:57;99245.94;;;14.01;37.42
7180;BME280;3631;42.152;24.756;2023-04-07T12:42:33;99248.47;;;14.02;37.39
7180;BME280;3631;42.152;24.756;2023-04-07T12:45:25;99249.31;;;14.03;37.43
7180;BME280;3631;42.152;24.756;2023-04-07T12:48:09;99247.69;;;14.00;37.90
7180;BME280;3631;42.152;24.756;2023-04-07T12:50:59;99252.38;;;13.94;38.49
7180;BME280;3631;42.152;24.756;2023-04-07T12:54:16;99242.00;;;13.92;38.90
7180;BME280;3631;42.152;24.756;2023-04-07T12:57:26;99235.81;;;13.95;39.49
7180;BME280;3631;42.152;24.756;2023-04-07T13:00:25;99233.66;;;14.03;39.14
7180;BME280;3631;42.152;24.756;2023-04-07T13:04:00;99242.97;;;13.90;39.93
7180;BME280;3631;42.152;24.756;2023-04-07T13:07:07;99235.03;;;13.93;40.13
7180;BME280;3631;42.152;24.756;2023-04-07T13:10:18;99238.53;;;13.92;39.90
7180;BME280;3631;42.152;24.756;2023-04-07T13:13:00;99221.19;;;13.91;40.20
7180;BME280;3631;42.152;24.756;2023-04-07T13:15:48;99233.97;;;13.97;40.16
7180;BME280;3631;42.152;24.756;2023-04-07T13:18:49;99224.44;;;13.96;40.55
7180;BME280;3631;42.152;24.756;2023-04-07T13:21:54;99231.63;;;13.91;41.02
7180;BME280;3631;42.152;24.756;2023-04-07T13:24:55;99227.25;;;13.91;41.15
7180;BME280;3631;42.152;24.756;2023-04-07T13:28:05;99231.13;;;14.01;40.74
7180;BME280;3631;42.152;24.756;2023-04-07T13:37:32;99237.16;;;13.85;41.88
7180;BME280;3631;42.152;24.756;2023-04-07T13:40:28;99246.66;;;13.67;42.11
7180;BME280;3631;42.152;24.756;2023-04-07T13:43:30;99237.66;;;13.74;42.00
7180;BME280;3631;42.152;24.756;2023-04-07T13:46:28;99224.38;;;13.78;41.98
7180;BME280;3631;42.152;24.756;2023-04-07T13:49:32;99236.25;;;13.86;42.37
7180;BME280;3631;42.152;24.756;2023-04-07T13:52:17;99226.06;;;13.98;42.63
7180;BME280;3631;42.152;24.756;2023-04-07T13:55:04;99234.81;;;13.78;42.27
7180;BME280;3631;42.152;24.756;2023-04-07T13:57:56;99230.09;;;13.87;42.87
7180;BME280;3631;42.152;24.756;2023-04-07T14:01:00;99224.06;;;14.03;42.41
7180;BME280;3631;42.152;24.756;2023-04-07T14:03:52;99232.63;;;14.07;42.46
7180;BME280;3631;42.152;24.756;2023-04-07T14:06:43;99236.06;;;13.89;42.46
7180;BME280;3631;42.152;24.756;2023-04-07T14:09:38;99230.50;;;13.77;42.93
7180;BME280;3631;42.152;24.756;2023-04-07T14:12:44;99234.97;;;13.75;42.67
7180;BME280;3631;42.152;24.756;2023-04-07T14:16:10;99218.81;;;13.67;42.90
7180;BME280;3631;42.152;24.756;2023-04-07T14:19:09;99237.22;;;13.64;43.41
7180;BME280;3631;42.152;24.756;2023-04-07T14:22:08;99233.91;;;13.61;44.00
7180;BME280;3631;42.152;24.756;2023-04-07T14:25:06;99234.88;;;13.58;43.09
7180;BME280;3631;42.152;24.756;2023-04-07T14:28:04;99234.94;;;13.57;43.73
7180;BME280;3631;42.152;24.756;2023-04-07T14:31:04;99240.38;;;13.52;44.28
7180;BME280;3631;42.152;24.756;2023-04-07T14:34:03;99246.50;;;13.51;44.38
7180;BME280;3631;42.152;24.756;2023-04-07T14:37:04;99240.94;;;13.40;44.30
7180;BME280;3631;42.152;24.756;2023-04-07T14:40:04;99248.53;;;13.44;44.72
7180;BME280;3631;42.152;24.756;2023-04-07T14:43:11;99239.72;;;13.47;44.88
7180;BME280;3631;42.152;24.756;2023-04-07T14:46:07;99245.38;;;13.57;44.42
7180;BME280;3631;42.152;24.756;2023-04-07T14:52:15;99250.28;;;13.44;44.85
7180;BME280;3631;42.152;24.756;2023-04-07T14:55:06;99241.06;;;13.37;45.32
7180;BME280;3631;42.152;24.756;2023-04-07T14:58:24;99244.03;;;13.48;45.12
7180;BME280;3631;42.152;24.756;2023-04-07T15:01:27;99250.03;;;13.50;44.52
7180;BME280;3631;42.152;24.756;2023-04-07T15:04:27;99253.44;;;13.32;45.50
7180;BME280;3631;42.152;24.756;2023-04-07T15:09:56;99259.31;;;13.37;45.92
7180;BME280;3631;42.152;24.756;2023-04-07T15:13:11;99259.44;;;13.34;45.85
7180;BME280;3631;42.152;24.756;2023-04-07T15:19:35;99268.38;;;13.28;46.95
7180;BME280;3631;42.152;24.756;2023-04-07T15:22:38;99265.78;;;13.28;47.21
7180;BME280;3631;42.152;24.756;2023-04-07T15:25:53;99261.72;;;13.21;48.02
7180;BME280;3631;42.152;24.756;2023-04-07T15:28:50;99235.88;;;12.96;48.64
7180;BME280;3631;42.152;24.756;2023-04-07T15:31:51;99260.47;;;13.09;48.86
7180;BME280;3631;42.152;24.756;2023-04-07T15:34:56;99267.31;;;13.12;49.33
7180;BME280;3631;42.152;24.756;2023-04-07T15:38:10;99261.16;;;13.15;49.36
7180;BME280;3631;42.152;24.756;2023-04-07T15:41:16;99269.00;;;13.13;49.73
7180;BME280;3631;42.152;24.756;2023-04-07T15:44:27;99269.97;;;13.10;49.31
7180;BME280;3631;42.152;24.756;2023-04-07T15:47:55;99270.13;;;13.07;49.74
7180;BME280;3631;42.152;24.756;2023-04-07T15:50:58;99273.44;;;13.11;50.34
7180;BME280;3631;42.152;24.756;2023-04-07T15:57:08;99287.31;;;12.91;50.76
7180;BME280;3631;42.152;24.756;2023-04-07T16:03:03;99290.31;;;13.02;50.86
7180;BME280;3631;42.152;24.756;2023-04-07T16:06:09;99294.56;;;13.05;51.00
7180;BME280;3631;42.152;24.756;2023-04-07T16:09:08;99296.44;;;13.01;51.47
7180;BME280;3631;42.152;24.756;2023-04-07T16:11:52;99297.88;;;13.08;51.26
7180;BME280;3631;42.152;24.756;2023-04-07T16:14:50;99298.91;;;13.04;51.29
7180;BME280;3631;42.152;24.756;2023-04-07T16:17:45;99305.63;;;13.10;51.23
7180;BME280;3631;42.152;24.756;2023-04-07T16:20:47;99307.66;;;13.03;51.57
7180;BME280;3631;42.152;24.756;2023-04-07T16:23:29;99311.44;;;12.96;52.10
7180;BME280;3631;42.152;24.756;2023-04-07T16:25:59;99324.56;;;12.93;52.94
7180;BME280;3631;42.152;24.756;2023-04-07T16:28:27;99319.31;;;12.95;52.95
7180;BME280;3631;42.152;24.756;2023-04-07T16:31:04;99324.41;;;12.98;53.37